createdAt,value
2023-05-12T00:01:02.310Z,6.38
2023-05-12T00:06:04.483Z,6.22
2023-05-12T00:11:05.967Z,6.10
2023-05-12T00:16:07.400Z,6.57
2023-05-12T00:21:08.819Z,5.80
2023-05-12T00:26:10.224Z,6.07
2023-05-12T00:31:11.615Z,6.32
2023-05-12T00:36:13.033Z,6.03
2023-05-12T00:41:14.444Z,6.38
2023-05-12T00:46:17.418Z,5.50
2023-05-12T00:51:18.874Z,6.90
2023-05-12T00:56:20.514Z,7.05
2023-05-12T01:01:21.962Z,6.47
2023-05-12T01:06:32.996Z,6.72
2023-05-12T01:11:34.520Z,6.47
2023-05-12T01:16:37.234Z,7.03
2023-05-12T01:21:38.694Z,6.88
2023-05-12T01:26:40.050Z,6.55
2023-05-12T01:31:41.889Z,6.60
2023-05-12T01:36:43.327Z,6.63
2023-05-12T01:41:44.674Z,6.80
2023-05-12T01:46:46.058Z,6.55
2023-05-12T01:51:47.431Z,6.50
2023-05-12T01:56:48.767Z,5.80
2023-05-12T02:01:50.194Z,5.82
2023-05-12T02:06:52.007Z,5.70
2023-05-12T02:11:53.879Z,6.28
2023-05-12T02:16:55.656Z,6.85
2023-05-12T02:21:57.069Z,6.60
2023-05-12T02:26:58.400Z,5.53
2023-05-12T02:32:00.106Z,6.00
2023-05-12T02:37:01.600Z,5.90
2023-05-12T02:42:03.003Z,6.38
2023-05-12T02:47:04.542Z,5.78
2023-05-12T02:52:06.376Z,5.85
2023-05-12T02:57:07.790Z,6.53
2023-05-12T03:02:09.335Z,5.88
2023-05-12T03:07:10.828Z,6.45
2023-05-12T03:12:12.210Z,6.60
2023-05-12T03:17:13.694Z,6.25
2023-05-12T03:22:15.461Z,5.43
2023-05-12T03:27:16.830Z,6.30
2023-05-12T03:32:18.221Z,6.10
2023-05-12T03:37:19.643Z,5.97
2023-05-12T03:42:21.061Z,6.15
2023-05-12T03:47:22.535Z,5.95
2023-05-12T03:52:24.037Z,6.05
2023-05-12T03:57:25.440Z,5.85
2023-05-12T04:02:27.221Z,6.25
2023-05-12T04:07:28.724Z,5.95
2023-05-12T04:12:30.353Z,6.18
2023-05-12T04:17:32.281Z,6.00
2023-05-12T04:22:33.690Z,6.15
2023-05-12T04:27:35.178Z,5.60
2023-05-12T04:32:36.575Z,5.88
2023-05-12T04:37:38.091Z,6.47
2023-05-12T04:42:39.476Z,6.75
2023-05-12T04:47:40.938Z,6.25
2023-05-12T04:52:42.347Z,6.15
2023-05-12T04:57:43.722Z,6.25
2023-05-12T05:02:45.148Z,6.38
2023-05-12T05:07:46.722Z,6.65
2023-05-12T05:12:48.385Z,5.90
2023-05-12T05:17:49.887Z,5.70
2023-05-12T05:22:51.397Z,6.72
2023-05-12T05:27:53.037Z,5.03
2023-05-12T05:32:54.491Z,5.65
2023-05-12T05:37:55.924Z,6.20
2023-05-12T05:42:58.512Z,6.47
2023-05-12T05:48:01.061Z,6.55
2023-05-12T05:53:02.539Z,6.18
2023-05-12T05:58:03.921Z,6.30
2023-05-12T06:03:05.362Z,5.78
2023-05-12T06:08:08.905Z,5.85
2023-05-12T06:13:10.728Z,6.37
2023-05-12T06:18:12.252Z,6.20
2023-05-12T06:23:13.685Z,5.93
2023-05-12T06:28:15.004Z,5.68
2023-05-12T06:33:16.448Z,5.50
2023-05-12T06:38:17.789Z,4.97
2023-05-12T06:43:19.423Z,5.93
2023-05-12T06:48:20.862Z,5.25
2023-05-12T06:53:24.102Z,5.43
2023-05-12T06:58:29.201Z,6.05
2023-05-12T07:03:33.784Z,5.40
2023-05-12T07:08:35.332Z,5.00
2023-05-12T07:13:38.002Z,4.93
2023-05-12T07:18:39.545Z,5.70
2023-05-12T07:23:41.214Z,5.10
2023-05-12T07:28:42.588Z,4.97
2023-05-12T07:33:43.960Z,5.30
2023-05-12T07:38:45.537Z,5.07
2023-05-12T07:43:46.940Z,5.10
2023-05-12T07:48:48.516Z,5.05
2023-05-12T07:53:49.910Z,5.50
2023-05-12T07:58:51.337Z,5.20
2023-05-12T08:03:52.877Z,5.20
2023-05-12T08:08:57.829Z,4.65
2023-05-12T08:13:59.277Z,5.38
2023-05-12T08:19:00.677Z,6.45
2023-05-12T08:24:02.082Z,5.45
2023-05-12T08:29:04.742Z,5.07
2023-05-12T08:34:10.340Z,4.28
2023-05-12T08:39:12.580Z,4.40
2023-05-12T08:44:14.080Z,5.03
2023-05-12T08:49:17.773Z,4.80
2023-05-12T08:54:20.744Z,4.53
2023-05-12T08:59:22.993Z,4.00
2023-05-12T09:04:24.507Z,4.53
2023-05-12T09:09:27.133Z,4.18
2023-05-12T09:14:29.749Z,5.80
2023-05-12T09:19:31.480Z,4.35
2023-05-12T09:24:36.523Z,4.00
2023-05-12T09:34:51.515Z,4.50
2023-05-12T09:40:06.645Z,3.63
2023-05-12T09:45:14.606Z,3.72
2023-05-12T09:50:16.036Z,4.18
2023-05-12T09:55:17.533Z,3.75
2023-05-12T10:00:34.453Z,2.92
2023-05-12T10:05:46.227Z,3.13
2023-05-12T10:10:49.114Z,2.50
2023-05-12T10:15:52.145Z,3.25
2023-05-12T10:20:54.063Z,3.95
2023-05-12T10:26:02.052Z,2.83
2023-05-12T10:31:05.712Z,2.58
2023-05-12T10:36:17.037Z,2.72
2023-05-12T10:41:29.035Z,2.17
2023-05-12T10:46:31.042Z,2.10
2023-05-12T10:51:34.105Z,1.55
2023-05-12T10:56:38.670Z,2.10
2023-05-12T11:01:56.762Z,2.42
2023-05-12T11:07:01.076Z,2.10
2023-05-12T11:12:03.017Z,1.75
2023-05-12T11:17:04.713Z,2.40
2023-05-12T11:22:07.429Z,1.98
2023-05-12T11:27:13.053Z,1.70
2023-05-12T11:32:15.821Z,1.85
2023-05-12T11:37:20.781Z,1.58
2023-05-12T11:42:25.136Z,2.00
2023-05-12T11:47:27.219Z,2.50
2023-05-12T11:52:29.602Z,1.53
2023-05-12T11:57:32.076Z,1.80
2023-05-12T12:02:33.893Z,2.20
2023-05-12T12:07:36.598Z,1.77
2023-05-12T12:12:38.055Z,1.40
2023-05-12T12:17:39.837Z,1.88
2023-05-12T12:22:41.658Z,1.67
2023-05-12T12:27:43.068Z,1.52
2023-05-12T12:32:45.625Z,1.35
2023-05-12T12:37:51.342Z,2.10
2023-05-12T12:42:52.829Z,2.17
2023-05-12T12:47:54.924Z,2.30
2023-05-12T12:52:56.743Z,2.33
2023-05-12T12:57:58.108Z,2.30
2023-05-12T13:03:00.451Z,2.47
2023-05-12T13:08:02.069Z,2.60
2023-05-12T13:13:03.499Z,2.80
2023-05-12T13:18:04.961Z,2.70
2023-05-12T13:23:06.426Z,2.60
2023-05-12T13:28:08.292Z,2.22
2023-05-12T13:33:09.792Z,2.80
2023-05-12T13:38:11.220Z,3.25
2023-05-12T13:43:12.958Z,2.78
2023-05-12T13:48:14.347Z,3.45
2023-05-12T13:53:16.159Z,2.58
2023-05-12T13:58:17.486Z,2.38
2023-05-12T14:03:18.996Z,3.20
2023-05-12T14:08:20.406Z,2.53
2023-05-12T14:13:21.965Z,2.47
2023-05-12T14:18:25.027Z,2.70
2023-05-12T14:23:26.581Z,2.70
2023-05-12T14:28:28.877Z,2.47
2023-05-12T14:33:30.330Z,2.78
2023-05-12T14:38:31.720Z,2.58
2023-05-12T14:43:33.132Z,2.95
2023-05-12T14:48:34.743Z,2.72
2023-05-12T14:53:36.074Z,3.30
2023-05-12T14:58:37.503Z,3.05
2023-05-12T15:03:39.027Z,3.08
2023-05-12T15:08:40.414Z,2.55
2023-05-12T15:13:41.813Z,8.07
2023-05-12T15:18:44.356Z,2.15
2023-05-12T15:23:45.873Z,2.22
2023-05-12T15:28:47.229Z,2.33
2023-05-12T15:33:48.551Z,2.47
2023-05-12T15:38:49.978Z,2.53
2023-05-12T15:43:51.679Z,2.22
2023-05-12T15:48:53.030Z,2.00
2023-05-12T15:53:54.502Z,2.47
2023-05-12T15:58:58.852Z,1.90
2023-05-12T16:04:00.893Z,2.53
2023-05-12T16:09:02.441Z,1.98
2023-05-12T16:14:03.879Z,2.60
2023-05-12T16:19:05.505Z,1.95
2023-05-12T16:24:08.913Z,1.92
2023-05-12T16:29:10.718Z,1.67
2023-05-12T16:34:12.096Z,2.35
2023-05-12T16:39:13.797Z,1.65
2023-05-12T16:44:15.607Z,1.58
2023-05-12T16:49:16.994Z,2.22
2023-05-12T16:54:18.753Z,1.80
2023-05-12T16:59:20.091Z,1.75
2023-05-12T17:04:21.459Z,1.65
2023-05-12T17:09:23.259Z,2.03
2023-05-12T17:14:24.582Z,2.10
2023-05-12T17:19:26.529Z,2.42
2023-05-12T17:24:29.009Z,2.80
2023-05-12T17:29:30.374Z,2.08
2023-05-12T17:34:31.713Z,2.15
2023-05-12T17:39:34.217Z,2.40
2023-05-12T17:44:35.715Z,2.13
2023-05-12T17:49:37.549Z,1.85
2023-05-12T17:54:39.986Z,1.95
2023-05-12T17:59:41.333Z,2.30
2023-05-12T18:04:42.707Z,2.03
2023-05-12T18:09:44.107Z,3.33
2023-05-12T18:14:46.640Z,2.58
2023-05-12T18:19:48.337Z,2.97
2023-05-12T18:24:50.866Z,2.53
2023-05-12T18:29:52.387Z,2.40
2023-05-12T18:34:53.762Z,2.28
2023-05-12T18:39:55.636Z,3.08
2023-05-12T18:44:56.966Z,2.83
2023-05-12T18:49:58.352Z,3.03
2023-05-12T18:54:59.912Z,3.08
2023-05-12T19:00:01.963Z,3.08
2023-05-12T19:05:03.464Z,3.20
2023-05-12T19:10:05.348Z,3.03
2023-05-12T19:15:07.061Z,2.80
2023-05-12T19:20:08.694Z,3.05
2023-05-12T19:25:10.091Z,3.00
2023-05-12T19:30:11.988Z,3.10
2023-05-12T19:35:14.388Z,3.17
2023-05-12T19:40:15.832Z,3.50
2023-05-12T19:45:17.219Z,4.20
2023-05-12T19:50:20.279Z,3.03
2023-05-12T19:55:22.033Z,3.08
2023-05-12T20:00:25.670Z,3.63
2023-05-12T20:05:27.059Z,2.77
2023-05-12T20:10:28.405Z,3.28
2023-05-12T20:15:30.435Z,3.33
2023-05-12T20:20:31.851Z,3.42
2023-05-12T20:25:33.705Z,3.42
2023-05-12T20:30:35.630Z,3.28
2023-05-12T20:35:37.066Z,3.47
2023-05-12T20:40:40.293Z,3.72
2023-05-12T20:45:42.428Z,3.83
2023-05-12T20:50:43.866Z,4.03
2023-05-12T20:55:45.857Z,4.22
2023-05-12T21:00:47.378Z,4.07
2023-05-12T21:05:49.418Z,4.00
2023-05-12T21:10:50.894Z,4.45
2023-05-12T21:15:52.227Z,3.65
2023-05-12T21:20:53.610Z,3.97
2023-05-12T21:25:54.946Z,4.45
2023-05-12T21:30:56.273Z,3.92
2023-05-12T21:35:57.638Z,4.05
2023-05-12T21:40:59.046Z,3.80
2023-05-12T21:46:04.299Z,3.72
2023-05-12T21:51:05.711Z,4.78
2023-05-12T21:56:07.225Z,4.32
2023-05-12T22:01:08.657Z,3.70
2023-05-12T22:06:10.000Z,4.78
2023-05-12T22:11:11.420Z,4.82
2023-05-12T22:16:12.847Z,4.65
2023-05-12T22:21:14.231Z,4.40
2023-05-12T22:26:15.700Z,5.00
2023-05-12T22:31:17.073Z,4.78
2023-05-12T22:36:18.541Z,4.15
2023-05-12T22:41:19.883Z,4.68
2023-05-12T22:46:21.510Z,4.72
2023-05-12T22:51:22.933Z,4.65
2023-05-12T22:56:24.286Z,4.80
2023-05-12T23:01:25.654Z,4.75
2023-05-12T23:06:27.089Z,4.88
2023-05-12T23:11:28.493Z,4.15
2023-05-12T23:16:29.943Z,4.75
2023-05-12T23:21:31.613Z,5.45
2023-05-12T23:26:33.023Z,4.65
2023-05-12T23:31:34.427Z,5.25
2023-05-12T23:36:35.990Z,5.13
2023-05-12T23:41:37.398Z,5.07
2023-05-12T23:46:38.917Z,5.72
2023-05-12T23:51:40.534Z,5.45
2023-05-12T23:56:41.893Z,5.75
